Altenburg, Missouri
Current Conditions -  °F | °C
As of 6:52 PM on Wednesday 17 Dec 2014 (Local Time) from KMDH Reporting Station
Clear Clear  
Wind Chill:   Ceiling: Unl
Heat Index:   Visibility: 10mi
Dew Point: -2°   Wind: 0mph
Humidity: 82%   Direction: NA
Pressure: 30.29"   Gusts: NA
Location:  37.63°N, 89.59°W
Report Text: KMDH 180052Z AUTO 00000KT 10SM CLR 01/M02 A3029 RMK AO2 SLP261 T00061022
Loading
Personal Weather Stations






























Interactive Weather Map New forecast layout! Learn more

10-Day Weather Forecast

Advertisements
Track Severe Weather on mobile